Time;durP1;ratioP1;P1;durP2;ratioP2;P2;SDS_P1;SDS_P2;PMS_P1;PMS_P2;Temp;Humidity;BMP_temperature;BMP_pressure;BME280_temperature;BME280_humidity;BME280_pressure;Samples;Min_cycle;Max_cycle;Signal;HPM_P1;HPM_P2
2023/04/21 00:00:23;;;;;;;11.60;4.25;;;;;;;9.06;35.10;99594.44;5069705;28;20470;-49
2023/04/21 00:02:49;;;;;;;12.25;4.85;;;;;;;9.05;35.08;99590.16;5088921;28;20420;-49
2023/04/21 00:05:16;;;;;;;12.00;4.57;;;;;;;8.95;34.97;99575.75;5085959;28;20044;-49
2023/04/21 00:07:42;;;;;;;11.50;4.50;;;;;;;8.95;35.30;99582.69;5087588;28;20142;-50
2023/04/21 00:10:09;;;;;;;6.90;3.88;;;;;;;8.76;35.49;99561.63;5054866;28;20040;-46
2023/04/21 00:12:36;;;;;;;9.27;4.20;;;;;;;8.86;35.37;99576.88;5087716;28;20515;-49
2023/04/21 00:15:03;;;;;;;8.45;4.22;;;;;;;8.82;35.50;99577.84;5103062;28;20135;-46
2023/04/21 00:17:32;;;;;;;9.65;4.03;;;;;;;8.81;35.64;99568.38;5084322;28;20044;-49
2023/04/21 00:19:58;;;;;;;9.45;3.83;;;;;;;8.78;35.76;99570.22;5100538;28;20519;-49
2023/04/21 00:22:25;;;;;;;7.88;3.80;;;;;;;8.48;35.90;99523.53;5085962;28;20411;-47
2023/04/21 00:24:50;;;;;;;7.40;3.53;;;;;;;8.71;35.78;99577.31;5069387;28;20036;-48
2023/04/21 00:27:16;;;;;;;7.47;3.75;;;;;;;8.68;35.94;99568.78;5069917;28;20181;-50
2023/04/21 00:29:43;;;;;;;8.98;3.42;;;;;;;8.65;36.29;99569.72;5084967;28;20040;-48
2023/04/21 00:32:11;;;;;;;6.18;3.60;;;;;;;8.67;36.14;99569.66;5067919;28;20126;-48
2023/04/21 00:34:37;;;;;;;10.30;3.85;;;;;;;8.61;36.18;99562.06;5085835;28;20555;-46
2023/04/21 00:37:03;;;;;;;7.32;3.38;;;;;;;8.59;36.03;99569.03;5086161;28;20048;-46
2023/04/21 00:39:29;;;;;;;6.80;3.55;;;;;;;8.61;36.32;99569.84;5088337;28;20043;-48
2023/04/21 00:41:56;;;;;;;6.95;3.40;;;;;;;8.35;36.25;99537.75;5086019;28;20064;-46
2023/04/21 00:44:22;;;;;;;13.82;3.72;;;;;;;8.50;36.23;99573.59;5095103;28;20163;-48
2023/04/21 00:46:48;;;;;;;7.85;3.50;;;;;;;8.29;36.43;99544.78;5058736;28;20554;-51
2023/04/21 00:49:14;;;;;;;14.35;3.72;;;;;;;8.38;36.19;99560.97;5068018;28;20048;-50
2023/04/21 00:51:41;;;;;;;5.30;3.40;;;;;;;8.28;36.26;99556.88;5085387;28;20040;-48
2023/04/21 00:54:08;;;;;;;8.85;3.90;;;;;;;8.30;36.61;99565.50;5085496;28;20052;-51
2023/04/21 00:56:35;;;;;;;7.97;3.83;;;;;;;8.25;36.33;99556.97;5085569;28;20537;-50
2023/04/21 00:59:02;;;;;;;8.20;3.80;;;;;;;8.23;36.46;99556.16;5073419;28;20063;-48
2023/04/21 01:01:29;;;;;;;8.40;4.20;;;;;;;8.18;36.48;99555.44;5050237;28;20419;-46
2023/04/21 01:03:59;;;;;;;10.77;3.95;;;;;;;8.14;36.79;99547.78;5076783;28;20050;-47
2023/04/21 01:06:27;;;;;;;10.18;3.97;;;;;;;8.09;36.87;99545.34;5069846;28;20040;-47
2023/04/21 01:08:54;;;;;;;12.93;4.03;;;;;;;7.91;37.41;99513.00;5037037;28;20040;-47
2023/04/21 01:11:20;;;;;;;9.93;3.42;;;;;;;8.01;37.03;99544.66;5103862;28;20096;-48
2023/04/21 01:13:46;;;;;;;9.38;3.63;;;;;;;7.83;37.36;99514.09;5103177;28;20036;-45
2023/04/21 01:16:16;;;;;;;11.30;3.70;;;;;;;7.79;37.26;99504.72;5086594;28;20097;-48
2023/04/21 01:18:44;;;;;;;12.70;4.00;;;;;;;7.94;37.41;99535.38;5051954;28;20048;-46
2023/04/21 01:21:12;;;;;;;12.45;3.63;;;;;;;7.92;37.37;99534.56;5074779;28;20043;-45
2023/04/21 01:23:41;;;;;;;6.88;3.70;;;;;;;7.91;37.47;99535.44;5069920;28;20042;-49
2023/04/21 01:26:07;;;;;;;7.95;3.38;;;;;;;7.90;37.63;99531.19;5097879;28;20044;-47
2023/04/21 01:28:35;;;;;;;7.57;3.22;;;;;;;7.89;37.31;99537.25;5077108;28;20039;-49
2023/04/21 01:31:04;;;;;;;7.22;3.47;;;;;;;7.85;38.07;99533.03;5094401;28;20049;-48
2023/04/21 01:33:30;;;;;;;9.65;3.45;;;;;;;7.85;37.67;99531.28;5084647;28;20093;-52
2023/04/21 01:35:59;;;;;;;7.82;3.30;;;;;;;7.82;38.00;99533.94;5068575;28;20518;-51
2023/04/21 01:38:26;;;;;;;8.75;3.50;;;;;;;7.79;37.77;99526.28;5024765;28;20045;-50
2023/04/21 01:40:53;;;;;;;8.43;3.38;;;;;;;7.80;37.90;99533.13;5082031;28;20071;-51
2023/04/21 01:43:22;;;;;;;9.43;3.47;;;;;;;7.74;37.80;99516.94;5087315;28;20071;-46
2023/04/21 01:45:48;;;;;;;7.78;3.22;;;;;;;7.74;37.88;99519.53;5078205;28;20447;-51
2023/04/21 01:48:14;;;;;;;7.68;3.20;;;;;;;7.71;37.65;99524.75;5100384;28;20032;-45
2023/04/21 01:50:40;;;;;;;9.00;3.38;;;;;;;7.67;37.80;99534.34;5089283;28;20052;-50
2023/04/21 01:53:09;;;;;;;9.15;3.40;;;;;;;7.43;37.96;99491.81;5041360;28;20048;-48
2023/04/21 01:55:35;;;;;;;9.02;3.17;;;;;;;7.47;38.25;99506.38;5084358;28;20526;-49
2023/04/21 01:58:01;;;;;;;7.10;3.30;;;;;;;7.61;38.09;99529.31;5045545;28;20040;-49
2023/04/21 02:00:27;;;;;;;8.18;3.03;;;;;;;7.57;37.78;99536.31;5048170;28;20032;-48
2023/04/21 02:02:53;;;;;;;7.63;3.28;;;;;;;7.40;38.01;99507.41;5079035;28;20134;-45
2023/04/21 02:05:19;;;;;;;9.30;3.53;;;;;;;7.53;37.77;99533.84;5088666;28;20174;-51
2023/04/21 02:07:45;;;;;;;6.15;2.90;;;;;;;7.48;38.02;99527.94;5087059;28;20035;-46
2023/04/21 02:10:11;;;;;;;8.70;3.42;;;;;;;7.51;38.22;99527.84;5070251;28;20605;-49
2023/04/21 02:12:37;;;;;;;10.50;3.22;;;;;;;7.49;37.98;99530.47;5102552;28;20047;-46
2023/04/21 02:15:04;;;;;;;6.72;3.05;;;;;;;7.46;37.84;99525.38;5104793;28;20052;-46
2023/04/21 02:17:33;;;;;;;7.25;2.75;;;;;;;7.46;38.25;99519.34;5071728;28;20055;-51
2023/04/21 02:19:59;;;;;;;8.85;3.85;;;;;;;7.33;37.94;99502.44;5089332;28;20088;-48
2023/04/21 02:22:25;;;;;;;10.32;3.55;;;;;;;7.39;37.70;99510.03;5069950;28;20036;-45
2023/04/21 02:24:51;;;;;;;17.13;4.93;;;;;;;7.43;38.22;99519.44;5101219;28;20116;-47
2023/04/21 02:27:19;;;;;;;16.83;3.85;;;;;;;7.44;37.76;99526.28;5073871;28;20039;-47
2023/04/21 02:29:45;;;;;;;13.93;3.75;;;;;;;7.47;37.76;99523.63;5060645;28;20032;-50
2023/04/21 02:32:11;;;;;;;14.15;4.10;;;;;;;7.45;38.21;99523.66;5102379;28;20039;-46
2023/04/21 02:34:37;;;;;;;9.00;2.97;;;;;;;7.49;38.09;99533.03;5067855;28;20117;-49
2023/04/21 02:37:05;;;;;;;11.02;3.00;;;;;;;7.52;37.71;99532.13;5065646;28;20060;-48
2023/04/21 02:39:31;;;;;;;8.23;2.95;;;;;;;7.54;37.65;99528.59;5066343;28;20170;-47
2023/04/21 02:41:57;;;;;;;5.93;2.80;;;;;;;7.53;37.67;99539.00;5075468;28;20028;-48
2023/04/21 02:44:23;;;;;;;7.07;2.75;;;;;;;7.56;38.09;99529.44;5104737;28;20054;-46
2023/04/21 02:46:49;;;;;;;6.15;2.92;;;;;;;7.61;37.57;99537.06;5114581;27;20040;-46
2023/04/21 02:49:15;;;;;;;6.95;2.90;;;;;;;7.45;37.83;99494.38;5097488;28;20043;-49
2023/04/21 02:51:41;;;;;;;6.10;2.67;;;;;;;7.69;37.61;99539.50;5089578;28;20050;-49
2023/04/21 02:54:07;;;;;;;6.75;3.08;;;;;;;7.73;37.66;99533.34;5103763;28;20035;-49
2023/04/21 02:56:33;;;;;;;8.63;2.97;;;;;;;7.61;37.92;99506.03;5069242;28;20454;-45
2023/04/21 02:58:59;;;;;;;9.63;3.05;;;;;;;7.76;37.50;99531.53;5089184;28;20066;-50
2023/04/21 03:01:25;;;;;;;14.50;3.40;;;;;;;7.78;37.55;99531.47;5086802;28;20032;-48
2023/04/21 03:03:51;;;;;;;11.88;3.55;;;;;;;7.82;37.63;99530.50;5089889;28;20046;-48
2023/04/21 03:06:17;;;;;;;6.95;3.00;;;;;;;7.83;37.44;99534.81;5105466;28;20039;-49
2023/04/21 03:08:45;;;;;;;7.22;2.95;;;;;;;7.84;37.54;99539.94;5090284;28;20040;-49
2023/04/21 03:11:10;;;;;;;9.07;3.13;;;;;;;7.84;37.48;99536.50;5070930;28;20032;-46
2023/04/21 03:13:37;;;;;;;5.68;3.05;;;;;;;7.87;37.68;99539.00;5071357;28;20067;-46
2023/04/21 03:16:03;;;;;;;8.93;3.72;;;;;;;7.91;37.48;99544.06;5054631;28;20043;-46
2023/04/21 03:18:29;;;;;;;16.67;4.60;;;;;;;7.93;37.67;99542.28;5064036;28;20036;-45
2023/04/21 03:20:59;;;;;;;11.05;3.40;;;;;;;7.95;37.57;99537.09;5054403;28;20525;-49
2023/04/21 03:23:25;;;;;;;7.40;3.00;;;;;;;7.95;37.48;99532.75;5070465;28;20446;-48
2023/04/21 03:25:51;;;;;;;11.38;3.03;;;;;;;8.02;37.36;99536.88;5105053;28;20089;-46
2023/04/21 03:28:18;;;;;;;10.60;2.65;;;;;;;8.03;37.37;99535.13;5102421;28;20028;-46
2023/04/21 03:30:44;;;;;;;4.35;2.60;;;;;;;8.11;37.10;99543.56;5089300;28;20129;-49
2023/04/21 03:33:10;;;;;;;10.32;3.00;;;;;;;8.13;37.36;99539.16;5085273;28;20193;-47
2023/04/21 03:35:37;;;;;;;3.63;2.22;;;;;;;8.17;36.98;99543.38;5087172;28;20066;-52
2023/04/21 03:38:03;;;;;;;12.40;3.17;;;;;;;8.09;37.35;99528.06;5088521;28;20036;-50
2023/04/21 03:40:29;;;;;;;12.57;2.80;;;;;;;8.24;36.63;99542.34;5089052;28;20458;-55
2023/04/21 03:42:55;;;;;;;14.05;2.35;;;;;;;8.28;36.80;99548.25;5070110;28;20051;-47
2023/04/21 03:45:22;;;;;;;6.82;2.45;;;;;;;8.31;36.51;99537.88;5070106;28;20062;-45
2023/04/21 03:47:52;;;;;;;3.92;2.30;;;;;;;8.40;36.48;99547.97;5088412;28;20123;-51
2023/04/21 03:50:18;;;;;;;5.32;2.28;;;;;;;8.44;36.04;99547.84;5088636;28;20174;-49
2023/04/21 03:52:45;;;;;;;8.70;2.10;;;;;;;8.50;35.89;99539.91;5082246;28;20127;-47
2023/04/21 03:55:10;;;;;;;8.70;2.53;;;;;;;8.59;35.92;99541.38;5051845;28;20183;-47
2023/04/21 03:57:40;;;;;;;7.43;2.70;;;;;;;8.52;36.07;99516.56;5085815;28;20047;-47
2023/04/21 04:00:07;;;;;;;;;;;;;;;8.76;35.67;99546.06;5088510;28;20052;-50
2023/04/21 04:02:39;;;;;;;4.45;2.13;;;;;;;8.82;35.69;99546.75;5087117;28;20336;-50
2023/04/21 04:05:06;;;;;;;11.68;2.70;;;;;;;8.94;35.46;99540.34;5077121;28;20423;-45
2023/04/21 04:07:32;;;;;;;5.25;2.40;;;;;;;8.92;35.33;99519.66;5069116;28;20051;-49
2023/04/21 04:09:58;;;;;;;7.47;1.98;;;;;;;9.11;35.37;99538.09;5067767;28;20039;-51
2023/04/21 04:12:24;;;;;;;5.45;2.00;;;;;;;9.17;35.22;99529.25;5085761;28;20036;-48
2023/04/21 04:14:50;;;;;;;5.05;2.20;;;;;;;9.27;35.21;99535.84;5086143;28;20507;-50
2023/04/21 04:17:16;;;;;;;6.97;2.03;;;;;;;9.34;34.96;99535.63;5069184;28;20078;-47
2023/04/21 04:19:42;;;;;;;5.03;2.00;;;;;;;9.42;34.80;99532.78;5086152;28;20155;-46
2023/04/21 04:22:08;;;;;;;3.00;1.75;;;;;;;9.45;34.90;99535.28;5068598;28;20507;-52
2023/04/21 04:24:34;;;;;;;5.68;1.80;;;;;;;9.58;34.66;99541.75;5052619;28;20516;-47
2023/04/21 04:27:02;;;;;;;10.90;2.55;;;;;;;9.61;34.50;99535.66;5085608;28;20059;-47
2023/04/21 04:29:28;;;;;;;7.78;2.30;;;;;;;9.71;34.26;99537.03;5071513;28;20035;-50
2023/04/21 04:31:56;;;;;;;5.80;2.10;;;;;;;9.72;33.86;99516.22;5070130;28;20047;-46
2023/04/21 04:34:23;;;;;;;8.23;2.40;;;;;;;9.92;33.93;99530.28;5085335;28;20084;-51
2023/04/21 04:36:50;;;;;;;7.00;2.38;;;;;;;9.78;33.43;99497.00;5102522;28;20048;-48
2023/04/21 04:39:16;;;;;;;4.97;2.10;;;;;;;10.14;33.76;99536.44;5085475;28;20330;-47
2023/04/21 04:41:42;;;;;;;6.45;2.47;;;;;;;10.26;33.41;99548.19;5067072;28;20063;-49
2023/04/21 04:44:08;;;;;;;6.72;1.88;;;;;;;10.36;33.40;99534.81;5068709;28;20056;-48
2023/04/21 04:46:34;;;;;;;6.80;1.85;;;;;;;10.27;33.72;99514.34;5086215;28;20460;-47
2023/04/21 04:49:00;;;;;;;7.85;1.98;;;;;;;10.44;33.18;99531.91;5084170;28;20089;-49
2023/04/21 04:51:27;;;;;;;6.18;1.77;;;;;;;10.53;33.16;99531.56;5081825;28;20109;-47
2023/04/21 04:53:53;;;;;;;4.60;2.60;;;;;;;10.61;32.82;99530.41;5085648;28;20048;-50
2023/04/21 04:56:19;;;;;;;7.95;2.28;;;;;;;10.70;32.91;99533.56;5086393;28;20039;-47
2023/04/21 04:58:48;;;;;;;5.13;1.83;;;;;;;10.72;32.65;99539.56;5083335;28;20044;-52
2023/04/21 05:01:15;;;;;;;6.00;2.10;;;;;;;10.75;32.80;99535.09;5086879;28;20532;-48
2023/04/21 05:03:42;;;;;;;7.07;2.05;;;;;;;10.80;32.49;99529.72;5084432;28;20044;-47
2023/04/21 05:06:08;;;;;;;6.20;2.47;;;;;;;10.86;32.52;99522.53;5068687;28;20052;-49
2023/04/21 05:08:35;;;;;;;3.67;2.22;;;;;;;10.97;31.84;99520.38;5068814;28;20040;-47
2023/04/21 05:11:01;;;;;;;3.08;1.67;;;;;;;10.96;31.85;99497.00;5101907;28;20036;-50
2023/04/21 05:13:27;;;;;;;6.82;2.05;;;;;;;11.18;31.64;99529.09;5065745;28;20050;-48
2023/04/21 05:15:57;;;;;;;10.10;3.20;;;;;;;11.25;31.55;99516.69;5100883;28;20047;-51
2023/04/21 05:18:23;;;;;;;7.03;2.67;;;;;;;11.21;31.61;99497.75;5085342;28;20503;-50
2023/04/21 05:20:49;;;;;;;7.75;2.38;;;;;;;11.41;31.29;99522.97;5088111;28;20135;-50
2023/04/21 05:23:15;;;;;;;4.55;2.13;;;;;;;11.46;31.34;99518.44;5089348;28;20100;-49
2023/04/21 05:25:41;;;;;;;6.82;1.98;;;;;;;11.55;31.00;99510.25;5089972;28;20587;-47
2023/04/21 05:28:07;;;;;;;5.00;2.00;;;;;;;11.70;30.73;99507.00;5090588;28;20431;-48
2023/04/21 05:30:33;;;;;;;8.57;2.40;;;;;;;11.84;31.26;99504.69;5070628;28;20039;-51
2023/04/21 05:32:59;;;;;;;8.52;2.60;;;;;;;12.01;30.21;99496.16;5100733;28;20188;-48
2023/04/21 05:35:25;;;;;;;8.63;2.42;;;;;;;12.15;30.41;99508.59;5071137;28;20413;-49
2023/04/21 05:37:51;;;;;;;6.45;2.20;;;;;;;12.25;30.50;99509.88;5089210;28;20047;-48
2023/04/21 05:40:17;;;;;;;5.07;2.20;;;;;;;12.33;30.39;99507.78;5054482;28;20043;-53
2023/04/21 05:42:43;;;;;;;10.18;2.35;;;;;;;12.45;29.82;99503.81;5105251;28;20048;-47
2023/04/21 05:45:09;;;;;;;6.35;2.50;;;;;;;12.56;30.06;99498.97;5087324;28;20189;-49
2023/04/21 05:47:36;;;;;;;9.30;2.75;;;;;;;12.51;29.63;99480.06;5085080;28;20054;-47
2023/04/21 05:50:02;;;;;;;3.55;2.40;;;;;;;12.75;29.93;99502.41;5064841;28;20036;-51
2023/04/21 05:52:29;;;;;;;5.22;2.60;;;;;;;12.86;29.58;99496.69;5081605;28;20510;-45
2023/04/21 05:54:58;;;;;;;13.15;2.30;;;;;;;12.95;29.26;99507.53;5072046;28;20044;-49
2023/04/21 05:57:24;;;;;;;4.07;2.07;;;;;;;13.07;29.32;99513.97;5082510;28;20039;-52
2023/04/21 05:59:50;;;;;;;9.15;2.63;;;;;;;13.20;29.16;99509.84;5088037;28;20290;-49
2023/04/21 06:02:16;;;;;;;10.70;2.60;;;;;;;13.30;29.01;99497.22;5088709;28;20169;-53
2023/04/21 06:04:41;;;;;;;7.13;2.55;;;;;;;13.46;28.72;99501.63;5065278;28;20044;-47
2023/04/21 06:07:09;;;;;;;10.02;2.15;;;;;;;13.64;28.54;99496.41;5095596;28;20047;-52
2023/04/21 06:09:35;;;;;;;4.70;1.70;;;;;;;13.94;28.39;99494.88;5062683;28;20031;-49
2023/04/21 06:12:02;;;;;;;3.97;1.90;;;;;;;14.49;27.53;99494.66;5089102;28;20504;-50
2023/04/21 06:14:28;;;;;;;6.15;2.03;;;;;;;15.26;26.56;99487.72;5069441;28;20518;-47
2023/04/21 06:16:54;;;;;;;9.77;2.10;;;;;;;16.10;25.52;99483.69;5066834;28;20734;-51
2023/04/21 06:19:20;;;;;;;4.65;1.80;;;;;;;17.13;24.92;99493.00;5070007;28;20035;-49
2023/04/21 06:21:46;;;;;;;9.20;1.90;;;;;;;18.07;23.67;99484.13;5084072;28;20052;-49
2023/04/21 06:24:12;;;;;;;4.28;2.00;;;;;;;18.92;23.09;99478.13;5071206;28;20486;-49
2023/04/21 06:26:38;;;;;;;4.20;1.92;;;;;;;19.92;22.44;99479.56;5088760;28;20035;-50
2023/04/21 06:29:04;;;;;;;6.57;3.53;;;;;;;20.97;21.65;99483.59;5105117;28;20035;-48
2023/04/21 06:31:29;;;;;;;7.40;2.15;;;;;;;21.82;20.76;99481.88;5079485;28;20046;-48
2023/04/21 06:33:55;;;;;;;6.68;2.33;;;;;;;22.74;20.05;99493.41;5098147;28;20039;-51
2023/04/21 06:36:21;;;;;;;6.30;3.13;;;;;;;23.67;19.05;99474.44;5078868;28;20105;-49
2023/04/21 06:38:48;;;;;;;10.65;2.88;;;;;;;24.31;18.38;99494.09;5074995;28;20040;-49
2023/04/21 06:41:14;;;;;;;12.10;7.07;;;;;;;24.81;17.73;99486.59;5092753;28;20040;-47
2023/04/21 06:43:40;;;;;;;7.88;4.13;;;;;;;25.17;17.00;99486.72;5058511;28;20060;-55
2023/04/21 06:46:07;;;;;;;7.80;5.50;;;;;;;25.73;16.80;99467.81;5064180;28;20423;-54
2023/04/21 06:48:33;;;;;;;5.05;2.55;;;;;;;26.54;16.08;99481.66;5104353;28;20058;-49
2023/04/21 06:51:01;;;;;;;4.32;1.92;;;;;;;27.15;15.74;99478.78;5074824;28;20818;-51
2023/04/21 06:53:27;;;;;;;;;;;;;;;27.83;15.56;99481.22;5074981;28;20044;-52
2023/04/21 06:55:53;;;;;;;7.90;1.98;;;;;;;28.45;14.78;99485.00;5092343;28;19953;-53
2023/04/21 06:58:20;;;;;;;13.15;2.08;;;;;;;28.99;14.38;99479.78;5092244;28;20047;-62
2023/04/21 07:00:46;;;;;;;9.32;2.13;;;;;;;29.55;13.85;99473.25;5097197;28;20039;-53
2023/04/21 07:03:12;;;;;;;8.95;1.92;;;;;;;29.69;13.73;99477.84;5088890;28;20499;-48
2023/04/21 07:05:38;;;;;;;10.27;1.85;;;;;;;30.12;13.17;99479.00;5109206;27;20073;-51
2023/04/21 07:08:03;;;;;;;4.97;1.95;;;;;;;30.61;13.05;99479.34;5060582;28;20067;-53
2023/04/21 07:10:30;;;;;;;2.90;1.92;;;;;;;31.32;12.76;99468.84;5076066;28;20043;-49
2023/04/21 07:12:56;;;;;;;8.07;2.05;;;;;;;31.92;12.10;99479.16;5101246;28;20596;-52
2023/04/21 07:15:22;;;;;;;3.40;2.17;;;;;;;32.36;11.95;99458.16;5082843;28;20043;-53
2023/04/21 07:17:48;;;;;;;4.60;1.77;;;;;;;32.98;11.73;99469.88;5093781;28;20052;-53
2023/04/21 07:20:16;;;;;;;5.43;1.70;;;;;;;33.15;11.15;99457.72;5093335;28;20127;-50
2023/04/21 07:22:42;;;;;;;5.50;2.00;;;;;;;33.52;11.20;99467.97;5073145;28;20044;-54
2023/04/21 07:25:08;;;;;;;8.70;1.73;;;;;;;33.84;10.97;99460.13;5095320;28;20052;-50
2023/04/21 07:27:35;;;;;;;6.15;1.90;;;;;;;34.41;10.83;99462.16;5098392;28;20064;-50
2023/04/21 07:30:05;;;;;;;4.70;2.15;;;;;;;35.17;10.21;99465.03;5091805;28;20462;-50
2023/04/21 07:32:32;;;;;;;32.13;18.38;;;;;;;35.61;9.75;99456.00;5084108;28;20501;-57
2023/04/21 07:35:00;;;;;;;9.35;5.18;;;;;;;35.76;9.70;99450.28;5073373;28;20050;-49
2023/04/21 07:37:26;;;;;;;7.22;3.10;;;;;;;35.74;9.51;99438.88;5087276;28;20047;-54
2023/04/21 07:39:52;;;;;;;4.22;2.20;;;;;;;36.05;9.76;99450.47;5084488;28;20040;-51
2023/04/21 07:42:21;;;;;;;11.18;7.78;;;;;;;36.71;9.32;99448.97;5088590;28;20122;-54
2023/04/21 07:44:48;;;;;;;6.95;4.68;;;;;;;37.14;9.10;99429.84;5082875;28;20052;-49
2023/04/21 07:47:14;;;;;;;9.80;3.00;;;;;;;37.48;8.67;99448.09;5080396;28;20407;-48
2023/04/21 07:49:40;;;;;;;6.50;2.28;;;;;;;37.80;8.42;99450.53;5103797;28;20046;-54
2023/04/21 07:52:06;;;;;;;7.55;2.58;;;;;;;37.93;8.27;99447.63;5079026;28;20040;-55
2023/04/21 07:54:32;;;;;;;4.60;2.00;;;;;;;38.08;8.38;99445.28;5082993;28;20043;-46
2023/04/21 07:56:58;;;;;;;9.63;2.63;;;;;;;38.26;8.14;99433.47;5082910;28;20043;-54
2023/04/21 07:59:24;;;;;;;2.78;2.03;;;;;;;38.30;8.48;99440.06;5091268;28;20193;-51
2023/04/21 08:01:50;;;;;;;3.45;1.90;;;;;;;38.32;8.22;99427.06;5068141;28;20048;-55
2023/04/21 08:04:16;;;;;;;13.70;2.15;;;;;;;38.39;8.19;99428.59;5089329;28;20047;-56
2023/04/21 08:06:42;;;;;;;4.15;2.00;;;;;;;38.36;7.96;99420.13;5073019;28;20081;-51
2023/04/21 08:09:08;;;;;;;3.15;2.20;;;;;;;38.39;7.92;99417.72;5090953;28;20094;-56
2023/04/21 08:11:34;;;;;;;5.35;2.35;;;;;;;38.65;7.95;99423.72;5095997;28;20112;-55
2023/04/21 08:14:01;;;;;;;7.82;6.20;;;;;;;38.64;8.05;99420.16;5088673;28;20040;-53
2023/04/21 08:16:28;;;;;;;5.65;2.50;;;;;;;38.38;7.84;99385.34;5087894;28;20055;-54
2023/04/21 08:18:54;;;;;;;2.58;2.05;;;;;;;38.34;7.85;99406.75;5090989;28;20062;-53
2023/04/21 08:21:20;;;;;;;10.00;2.28;;;;;;;38.34;7.95;99408.66;5084983;28;20040;-54
2023/04/21 08:23:46;;;;;;;6.05;2.33;;;;;;;38.62;7.83;99399.75;5101539;27;20040;-56
2023/04/21 08:26:12;;;;;;;5.25;2.30;;;;;;;38.45;7.85;99395.06;5081769;28;20035;-54
2023/04/21 08:28:38;;;;;;;6.93;2.95;;;;;;;38.48;7.87;99400.00;5089710;28;20400;-56
2023/04/21 08:31:04;;;;;;;6.60;5.20;;;;;;;38.86;8.00;99398.59;5073347;28;20418;-52
2023/04/21 08:33:30;;;;;;;4.68;1.83;;;;;;;38.86;7.89;99382.28;5085596;28;20040;-50
2023/04/21 08:35:56;;;;;;;7.68;2.15;;;;;;;39.37;7.81;99387.59;5089879;28;20212;-49
2023/04/21 08:38:22;;;;;;;6.22;2.38;;;;;;;39.32;7.68;99400.25;5096198;28;20036;-56
2023/04/21 08:40:48;;;;;;;9.18;2.20;;;;;;;39.37;7.63;99390.31;5062098;28;20063;-51
2023/04/21 08:43:14;;;;;;;5.93;1.90;;;;;;;39.76;7.47;99393.97;5083554;28;20081;-56
2023/04/21 08:45:41;;;;;;;3.33;1.92;;;;;;;39.95;7.35;99374.63;5086599;28;20523;-51
2023/04/21 08:48:09;;;;;;;5.13;2.15;;;;;;;40.24;7.36;99375.34;5075408;28;20127;-53
2023/04/21 08:50:36;;;;;;;4.05;1.80;;;;;;;40.39;7.45;99368.19;5050364;28;20154;-54
2023/04/21 08:53:02;;;;;;;2.20;1.73;;;;;;;40.44;7.22;99367.41;5066216;28;20474;-54
2023/04/21 08:55:30;;;;;;;4.93;1.80;;;;;;;40.47;7.13;99353.25;5073005;28;20115;-52
2023/04/21 08:57:56;;;;;;;;;;;;;;;40.47;7.79;99361.44;5098683;28;20395;-49
2023/04/21 09:00:22;;;;;;;3.63;1.70;;;;;;;40.45;7.42;99363.59;5071372;28;20371;-51
2023/04/21 09:02:53;;;;;;;5.80;1.60;;;;;;;40.43;7.16;99341.22;5075767;28;20518;-53
2023/04/21 09:05:24;;;;;;;1.92;1.60;;;;;;;40.74;7.30;99351.41;5096687;28;20040;-54
2023/04/21 09:07:50;;;;;;;1.70;1.48;;;;;;;40.75;7.18;99352.25;5090484;28;20078;-60
2023/04/21 09:10:23;;;;;;;4.03;1.58;;;;;;;40.86;7.08;99352.09;5075262;28;20109;-50
2023/04/21 09:12:50;;;;;;;7.95;1.73;;;;;;;40.69;7.30;99310.47;5073352;28;20610;-53
2023/04/21 09:15:16;;;;;;;;;;;;;;;41.09;7.39;99347.44;5089634;28;20040;-48
2023/04/21 09:17:44;;;;;;;3.78;1.70;;;;;;;41.02;7.25;99339.44;5089486;28;19919;-48
2023/04/21 09:20:17;;;;;;;5.15;1.70;;;;;;;41.03;6.97;99314.63;5097244;28;20074;-55
2023/04/21 09:22:43;;;;;;;9.15;2.03;;;;;;;41.06;7.07;99334.28;5094689;28;20128;-55
2023/04/21 09:25:09;;;;;;;2.40;1.63;;;;;;;41.07;7.10;99319.56;5060488;28;20048;-50
2023/04/21 09:27:36;;;;;;;2.22;1.70;;;;;;;41.37;6.93;99331.56;5091823;28;20085;-51
2023/04/21 09:30:05;;;;;;;5.30;1.70;;;;;;;41.42;7.31;99304.28;5093454;28;20048;-57
2023/04/21 09:32:37;;;;;;;7.38;1.95;;;;;;;41.78;6.76;99321.75;5075778;28;20789;-53
2023/04/21 09:35:03;;;;;;;6.32;3.65;;;;;;;41.57;7.25;99305.50;5086917;28;20040;-48
2023/04/21 09:37:33;;;;;;;4.15;1.70;;;;;;;39.64;7.76;99308.00;5086012;28;20415;-51
2023/04/21 09:39:59;;;;;;;2.95;2.00;;;;;;;39.55;7.92;99295.91;5030283;28;20036;-55
2023/04/21 09:42:29;;;;;;;5.63;2.28;;;;;;;40.35;7.59;99307.09;5083838;28;20040;-54
2023/04/21 09:44:55;;;;;;;9.43;2.38;;;;;;;40.91;7.77;99313.13;5075321;28;20066;-55
2023/04/21 09:47:22;;;;;;;7.13;2.17;;;;;;;41.04;7.62;99307.25;5089487;28;20168;-54
2023/04/21 09:49:51;;;;;;;3.08;2.72;;;;;;;41.36;7.61;99301.78;5081238;28;20039;-52
2023/04/21 09:52:19;;;;;;;5.18;1.67;;;;;;;41.57;7.61;99300.88;5074227;28;20039;-56
2023/04/21 09:54:57;;;;;;;2.25;1.70;;;;;;;39.70;7.79;99264.28;5050363;28;20047;-51
2023/04/21 09:57:26;;;;;;;2.38;1.33;;;;;;;36.92;9.02;99285.84;5069213;28;20149;-53
2023/04/21 09:59:56;;;;;;;2.53;1.13;;;;;;;34.51;10.22;99278.09;5051815;28;20284;-54
2023/04/21 10:02:28;;;;;;;3.33;1.60;;;;;;;35.08;10.14;99279.81;5051520;28;20058;-48
2023/04/21 10:04:53;;;;;;;6.25;1.50;;;;;;;37.13;9.07;99276.38;5081576;28;20043;-52
2023/04/21 10:07:19;;;;;;;17.40;1.90;;;;;;;36.51;9.19;99279.34;5085715;28;20515;-50
2023/04/21 10:09:50;;;;;;;2.63;1.38;;;;;;;34.51;10.56;99275.41;5048968;28;20529;-56
2023/04/21 10:12:17;;;;;;;2.55;1.10;;;;;;;35.86;9.97;99272.84;5085367;28;20104;-51
2023/04/21 10:14:43;;;;;;;3.35;1.52;;;;;;;37.21;9.77;99282.28;5084311;28;20080;-56
2023/04/21 10:17:10;;;;;;;4.97;1.17;;;;;;;38.37;8.88;99270.44;5081262;28;20124;-54
2023/04/21 10:19:38;;;;;;;9.75;1.20;;;;;;;39.04;8.61;99267.91;5066381;28;20039;-54
2023/04/21 10:22:08;;;;;;;6.82;1.40;;;;;;;39.46;8.34;99268.28;5072048;28;20052;-50
2023/04/21 10:24:41;;;;;;;3.63;1.10;;;;;;;38.48;8.53;99237.00;5092846;28;20036;-51
2023/04/21 10:27:11;;;;;;;2.17;1.42;;;;;;;35.41;9.73;99228.19;5059745;28;20111;-54
2023/04/21 10:29:38;;;;;;;4.13;1.00;;;;;;;33.28;10.79;99244.88;5079957;28;20036;-55
2023/04/21 10:32:04;;;;;;;10.23;1.48;;;;;;;31.55;12.02;99258.00;5081082;28;20082;-49
2023/04/21 10:34:35;;;;;;;6.03;3.17;;;;;;;31.50;12.19;99251.53;5079550;28;20078;-51
2023/04/21 10:37:04;;;;;;;3.80;2.53;;;;;;;33.72;11.37;99248.72;5089205;28;20063;-50
2023/04/21 10:39:35;;;;;;;14.65;8.52;;;;;;;35.96;10.44;99247.97;5080625;28;20028;-54
2023/04/21 10:42:18;;;;;;;3.88;1.63;;;;;;;37.39;9.30;99240.66;5064977;28;20090;-49
2023/04/21 10:44:51;;;;;;;16.40;1.83;;;;;;;37.98;9.00;99247.66;5096679;28;20163;-50
2023/04/21 10:47:43;;;;;;;11.23;2.72;;;;;;;38.76;8.74;99268.75;5110175;27;20044;-53
2023/04/21 10:50:15;;;;;;;5.25;1.80;;;;;;;39.53;8.38;99254.50;5079904;28;20037;-51
2023/04/21 10:52:49;;;;;;;8.55;6.43;;;;;;;39.88;8.41;99255.00;5053392;28;20048;-56
2023/04/21 10:55:15;;;;;;;10.65;8.05;;;;;;;40.45;8.39;99249.16;5081243;28;20070;-56
2023/04/21 10:57:44;;;;;;;9.73;3.33;;;;;;;40.78;8.08;99246.19;5067846;28;20047;-52
2023/04/21 11:00:14;;;;;;;4.00;3.65;;;;;;;41.16;7.77;99245.16;5087621;28;20032;-54
2023/04/21 11:02:41;;;;;;;7.25;2.25;;;;;;;41.11;7.87;99223.31;5068987;28;20583;-53
2023/04/21 11:05:08;;;;;;;7.40;2.97;;;;;;;40.97;7.92;99239.28;5085039;28;20637;-53
2023/04/21 11:07:34;;;;;;;7.43;4.10;;;;;;;41.16;7.61;99215.16;5085134;28;20096;-57
2023/04/21 11:10:00;;;;;;;11.65;1.40;;;;;;;40.37;7.62;99234.06;5084037;28;20044;-54
2023/04/21 11:12:31;;;;;;;16.23;3.83;;;;;;;37.24;8.97;99205.03;5057334;28;20097;-50
2023/04/21 11:14:57;;;;;;;52.72;44.65;;;;;;;35.10;10.31;99223.66;5057494;28;20138;-55
2023/04/21 11:17:23;;;;;;;5.45;1.88;;;;;;;33.54;10.88;99209.78;5089424;28;20423;-52
2023/04/21 11:19:52;;;;;;;8.02;5.53;;;;;;;32.33;11.51;99223.63;5084174;28;20649;-49
2023/04/21 11:22:18;;;;;;;2.85;2.03;;;;;;;31.16;12.35;99217.41;5089654;28;20049;-53
2023/04/21 11:24:45;;;;;;;4.60;1.35;;;;;;;30.31;12.74;99201.31;5062455;28;20040;-48
2023/04/21 11:27:13;;;;;;;4.75;1.25;;;;;;;32.57;11.81;99211.44;5086907;28;20047;-55
2023/04/21 11:29:39;;;;;;;3.25;1.40;;;;;;;34.78;10.54;99209.41;5070023;28;20090;-51
2023/04/21 11:32:08;;;;;;;13.00;7.05;;;;;;;36.43;9.75;99194.91;5085308;28;20046;-49
2023/04/21 11:34:38;;;;;;;8.15;2.70;;;;;;;37.60;9.29;99201.25;5055898;28;20147;-53
2023/04/21 11:37:06;;;;;;;7.95;5.05;;;;;;;38.21;8.85;99207.94;5063278;28;20048;-55